Airfield :
LOGIN :

Register | Disclaimer

   EN    FR    IT 

 










Legend :    VFR   Marginal VFR   IFR   Intensive IFR   Very Intensive IFR
Visi :
Ceiling :
>= 8 km
>= 3000ft
5 to 8 km
1000 to 3000 ft
1500m to 5 km
500 to 1000 ft
800 to 1500m
200 to 500 ft
< 800m
< 200 ft
Symbols :   Thunderstorms  Fog  Heavy snow  Heavy precipitations  Wind > 20 kt
SIGMETs :     Misc.  Thunderstorms  Icing  Turbulence  Mountain Waves  Volcanic Ashes







- Airport Elevation : 1496 ft
- IATA code : SBZ


LRSB - Sibiu

CURRENT METAR :
  • 201430Z 30014KT 9999 FEW032CB SCT038TCU 25/19 Q1011

EXPIRED METARs :
  • 201400Z 35008KT 320V050 9999 VCSH FEW032CB SCT038 26/18 Q1011
  • 201330Z 02010KT 9999 FEW034CB SCT038 25/19 Q1011
  • 201300Z 01012KT 9999 FEW032CB SCT036TCU 25/19 Q1012
  • 201230Z 34008KT 9999 FEW032CB SCT036TCU 25/18 Q1012
  • 201200Z 35008KT 310V030 9999 FEW030CB SCT034TCU 25/18 Q1011

TAF TAF LRSB
Valid from the 20 at 12:00 until the 21 at 12:00 UTC


201100Z 2012/2112 35010KT 9999 BKN035
TEMPO 2012/2018 VRB15G25KT 3000 TSRA BKN010 BKN030CB
TEMPO 2110/2112 SCT035CB
No reported NOTAMs for that airfield.



MET'MAP, your aeronautical weather chart ! - Copyright ORBIFLY December 2007 - Disclaimer

ORBIFLY MET'MAP TEAM :

Programming & Development : Alexandra Zaïnal
Concept & Development : Baudouin d'Aumeries
Co-Development & Prog : Marc-Olivier Méhu
Technical & hardware support : Manuel Goepfert

Contact : metmap@orbifly.com




SOURCES & CREDITS :

   NOAA